Time;durP1;ratioP1;P1;durP2;ratioP2;P2;SDS_P1;SDS_P2;PMS_P1;PMS_P2;Temp;Humidity;BMP_temperature;BMP_pressure;BME280_temperature;BME280_humidity;BME280_pressure;Samples;Min_cycle;Max_cycle;Signal;HPM_P1;HPM_P2
2023/09/16 00:02:06;;;;;;;22.63;13.63;;;;;;;13.75;100.00;101253.25;5093829;28;20052;-64
2023/09/16 00:04:32;;;;;;;21.48;12.85;;;;;;;13.76;100.00;101249.69;5092683;28;20090;-61
2023/09/16 00:06:57;;;;;;;23.25;13.32;;;;;;;13.76;100.00;101252.34;5094419;28;20024;-62
2023/09/16 00:09:23;;;;;;;24.30;14.50;;;;;;;13.83;100.00;101254.09;5094553;28;20501;-61
2023/09/16 00:11:49;;;;;;;22.52;13.57;;;;;;;13.76;100.00;101253.25;5094595;28;20055;-64
2023/09/16 00:14:18;;;;;;;23.00;13.25;;;;;;;13.77;100.00;101255.03;5094227;28;20497;-61
2023/09/16 00:16:44;;;;;;;21.85;13.48;;;;;;;13.74;100.00;101252.34;5094340;28;20051;-61
2023/09/16 00:19:10;;;;;;;24.48;13.32;;;;;;;13.72;100.00;101258.56;5094359;28;20024;-64
2023/09/16 00:21:35;;;;;;;22.67;13.73;;;;;;;13.63;100.00;101259.47;5094147;28;20024;-63
2023/09/16 00:24:00;;;;;;;23.63;13.45;;;;;;;13.62;100.00;101268.31;5094256;28;20451;-65
2023/09/16 00:26:27;;;;;;;22.80;13.65;;;;;;;13.57;100.00;101271.00;5094039;28;20031;-61
2023/09/16 00:28:52;;;;;;;23.02;13.60;;;;;;;13.57;100.00;101272.75;5093962;28;20058;-70
2023/09/16 00:31:18;;;;;;;22.50;13.75;;;;;;;13.59;100.00;101271.00;5094109;28;20039;-68
2023/09/16 00:33:43;;;;;;;23.35;13.40;;;;;;;13.55;100.00;101270.09;5093854;28;20028;-69
2023/09/16 00:36:09;;;;;;;22.25;13.70;;;;;;;13.55;100.00;101270.09;5092875;28;20028;-69
2023/09/16 00:38:34;;;;;;;21.23;12.32;;;;;;;13.50;100.00;101268.31;5093942;28;20115;-69
2023/09/16 00:41:00;;;;;;;21.50;12.68;;;;;;;13.40;100.00;101259.50;5093725;28;20024;-70
2023/09/16 00:43:25;;;;;;;21.83;12.07;;;;;;;13.40;100.00;101260.38;5089490;28;20028;-69
2023/09/16 00:45:51;;;;;;;22.42;12.55;;;;;;;13.29;100.00;101255.94;5093838;28;20379;-70
2023/09/16 00:48:18;;;;;;;21.98;13.13;;;;;;;13.24;100.00;101261.25;5093636;28;20367;-69
2023/09/16 00:50:45;;;;;;;24.02;14.00;;;;;;;13.14;100.00;101264.78;5093587;28;20039;-62
2023/09/16 00:53:12;;;;;;;22.23;13.38;;;;;;;13.12;100.00;101253.25;5093645;28;20016;-69
2023/09/16 00:55:38;;;;;;;23.48;13.80;;;;;;;13.12;100.00;101250.59;5093531;28;20028;-69
2023/09/16 00:58:05;;;;;;;22.10;13.02;;;;;;;13.17;100.00;101248.84;5093441;28;20032;-70
2023/09/16 01:00:30;;;;;;;22.80;14.40;;;;;;;13.10;100.00;101237.34;5093548;28;20046;-70
2023/09/16 01:02:58;;;;;;;22.45;13.98;;;;;;;13.05;100.00;101237.34;5093215;28;20052;-69
2023/09/16 01:05:24;;;;;;;22.75;13.70;;;;;;;13.09;100.00;101240.88;5093448;28;20020;-64
2023/09/16 01:07:50;;;;;;;23.10;14.13;;;;;;;13.12;100.00;101234.69;5093444;28;20039;-70
2023/09/16 01:10:20;;;;;;;22.95;14.13;;;;;;;13.14;100.00;101236.47;5093265;28;20020;-70
2023/09/16 01:12:50;;;;;;;22.63;13.60;;;;;;;13.09;100.00;101235.56;5092040;28;20039;-69
2023/09/16 01:15:18;;;;;;;23.77;15.02;;;;;;;13.09;100.00;101235.56;5093010;28;20058;-69
2023/09/16 01:17:59;;;;;;;23.25;13.98;;;;;;;13.10;100.00;101232.03;5092979;28;20498;-70
2023/09/16 01:20:26;;;;;;;23.88;13.68;;;;;;;13.15;100.00;101239.97;5093265;28;20443;-69
2023/09/16 01:22:51;;;;;;;22.85;13.43;;;;;;;13.07;100.00;101237.34;5093102;28;20062;-69
2023/09/16 01:25:17;;;;;;;23.05;13.27;;;;;;;13.03;100.00;101232.91;5093084;28;20032;-70
2023/09/16 01:27:43;;;;;;;24.00;14.00;;;;;;;12.93;100.00;101233.78;5092783;28;20433;-69
2023/09/16 01:30:09;;;;;;;22.58;13.85;;;;;;;12.91;100.00;101231.13;5092874;28;20103;-66
2023/09/16 01:32:43;;;;;;;21.95;13.48;;;;;;;12.86;100.00;101238.22;5093358;28;20455;-70
2023/09/16 01:35:11;;;;;;;23.52;13.68;;;;;;;12.87;100.00;101240.88;5092776;28;20475;-69
2023/09/16 01:37:39;;;;;;;21.60;13.00;;;;;;;12.72;100.00;101241.72;5093013;28;20388;-69
2023/09/16 01:40:10;;;;;;;22.80;13.02;;;;;;;12.70;100.00;101237.31;5092487;28;20032;-69
2023/09/16 01:42:36;;;;;;;22.85;12.95;;;;;;;12.64;100.00;101238.19;5092746;28;20056;-70
2023/09/16 01:45:02;;;;;;;23.15;13.68;;;;;;;12.62;100.00;101228.44;5092941;28;20067;-69
2023/09/16 01:47:28;;;;;;;22.13;13.45;;;;;;;12.58;100.00;101232.84;5092972;28;20035;-69
2023/09/16 01:49:53;;;;;;;23.08;13.27;;;;;;;12.54;100.00;101226.66;5092669;28;20024;-69
2023/09/16 01:52:18;;;;;;;22.67;13.93;;;;;;;12.53;100.00;101231.97;5092874;28;20028;-70
2023/09/16 01:54:44;;;;;;;22.10;13.25;;;;;;;12.55;100.00;101224.88;5092872;28;20028;-69
2023/09/16 01:57:09;;;;;;;23.13;13.98;;;;;;;12.54;100.00;101226.66;5092888;28;20111;-66
2023/09/16 01:59:34;;;;;;;23.10;14.48;;;;;;;12.54;100.00;101224.00;5092654;28;20035;-69
2023/09/16 02:02:00;;;;;;;22.50;13.77;;;;;;;12.58;100.00;101231.97;5092875;28;20048;-70
2023/09/16 02:04:25;;;;;;;22.70;13.45;;;;;;;12.59;100.00;101228.44;5092819;28;20134;-70
2023/09/16 02:06:50;;;;;;;22.60;14.05;;;;;;;12.57;100.00;101225.78;5092567;28;20063;-68
2023/09/16 02:09:16;;;;;;;22.15;13.27;;;;;;;12.54;100.00;101225.78;5092712;28;20482;-69
2023/09/16 02:11:41;;;;;;;21.80;13.70;;;;;;;12.45;100.00;101229.31;5092443;28;20455;-69
2023/09/16 02:14:15;;;;;;;23.17;15.30;;;;;;;12.38;100.00;101231.03;5092680;28;20054;-69
2023/09/16 02:16:40;;;;;;;22.92;14.20;;;;;;;12.40;100.00;101228.38;5092882;28;20398;-66
2023/09/16 02:19:06;;;;;;;23.70;15.20;;;;;;;12.39;100.00;101231.91;5092417;28;20020;-69
2023/09/16 02:21:32;;;;;;;24.65;14.35;;;;;;;12.31;100.00;101223.06;5092437;28;20047;-69
2023/09/16 02:23:57;;;;;;;23.10;13.75;;;;;;;12.27;100.00;101227.47;5092851;28;20035;-69
2023/09/16 02:26:23;;;;;;;23.42;14.77;;;;;;;12.29;100.00;101224.81;5093800;28;20542;-69
2023/09/16 02:28:48;;;;;;;23.83;15.23;;;;;;;12.28;100.00;101225.72;5096274;28;20093;-64
2023/09/16 02:31:15;;;;;;;24.38;15.98;;;;;;;12.25;100.00;101223.06;5096431;28;20502;-69
2023/09/16 02:33:41;;;;;;;23.73;15.85;;;;;;;12.25;100.00;101231.00;5096216;28;20497;-69
2023/09/16 02:36:07;;;;;;;23.83;15.48;;;;;;;12.21;100.00;101228.31;5096259;28;20016;-66
2023/09/16 02:38:32;;;;;;;24.77;16.20;;;;;;;12.12;100.00;101223.00;5096084;28;20068;-67
2023/09/16 02:40:57;;;;;;;24.23;15.80;;;;;;;12.19;100.00;101223.91;5095158;28;20020;-70
2023/09/16 02:43:23;;;;;;;24.05;15.15;;;;;;;12.23;100.00;101227.44;5096120;28;20031;-70
2023/09/16 02:45:48;;;;;;;24.27;16.08;;;;;;;12.19;100.00;101221.28;5094744;28;20028;-69
2023/09/16 02:48:18;;;;;;;24.00;15.27;;;;;;;12.24;100.00;101227.44;5095909;28;20085;-70
2023/09/16 02:50:46;;;;;;;22.85;15.32;;;;;;;12.23;100.00;101225.69;5096083;28;20031;-69
2023/09/16 02:53:11;;;;;;;23.10;14.38;;;;;;;12.26;100.00;101225.72;5096084;28;20386;-69
2023/09/16 02:55:36;;;;;;;23.67;14.50;;;;;;;12.09;100.00;101228.28;5095792;28;20031;-68
2023/09/16 02:58:03;;;;;;;23.05;14.13;;;;;;;12.07;100.00;101226.50;5096178;28;20038;-69
2023/09/16 03:00:29;;;;;;;23.55;14.52;;;;;;;12.07;100.00;101234.44;5095665;28;20356;-69
2023/09/16 03:02:54;;;;;;;24.55;15.13;;;;;;;11.97;100.00;101225.56;5095497;28;20047;-71
2023/09/16 03:05:20;;;;;;;22.92;14.48;;;;;;;11.97;100.00;101221.19;5095610;28;20040;-70
2023/09/16 03:07:45;;;;;;;23.63;15.23;;;;;;;11.92;100.00;101220.22;5095439;28;20025;-70
2023/09/16 03:10:11;;;;;;;24.30;15.77;;;;;;;11.94;100.00;101223.81;5095509;28;20387;-71
2023/09/16 03:12:37;;;;;;;24.02;14.95;;;;;;;11.96;100.00;101215.88;5095682;28;20031;-70
2023/09/16 03:15:03;;;;;;;24.35;14.38;;;;;;;11.86;100.00;101220.19;5095438;28;20501;-70
2023/09/16 03:17:29;;;;;;;23.60;14.10;;;;;;;11.92;100.00;101214.91;5095370;28;20024;-71
2023/09/16 03:19:54;;;;;;;23.10;13.73;;;;;;;11.91;100.00;101217.56;5095495;28;20146;-71
2023/09/16 03:22:20;;;;;;;22.65;13.80;;;;;;;11.95;100.00;101214.09;5095358;28;20069;-70
2023/09/16 03:24:45;;;;;;;22.95;13.80;;;;;;;11.94;100.00;101214.97;5095152;28;20081;-68
2023/09/16 03:27:10;;;;;;;24.10;13.98;;;;;;;11.88;100.00;101212.25;5095408;28;20032;-70
2023/09/16 03:29:36;;;;;;;23.90;13.63;;;;;;;11.86;100.00;101218.41;5095434;28;20032;-70
2023/09/16 03:32:01;;;;;;;25.05;15.32;;;;;;;11.84;100.00;101212.25;5095572;28;20031;-70
2023/09/16 03:34:27;;;;;;;23.50;14.18;;;;;;;11.93;100.00;101210.53;5095098;28;20032;-69
2023/09/16 03:36:53;;;;;;;22.90;14.27;;;;;;;11.89;100.00;101208.75;5094932;28;20063;-68
2023/09/16 03:39:19;;;;;;;22.88;14.48;;;;;;;11.99;100.00;101213.22;5095141;28;20047;-69
2023/09/16 03:41:45;;;;;;;23.23;13.93;;;;;;;11.98;100.00;101208.81;5094864;28;20028;-69
2023/09/16 03:44:11;;;;;;;23.25;14.60;;;;;;;12.00;100.00;101201.75;5094777;28;20032;-67
2023/09/16 03:46:37;;;;;;;22.95;13.85;;;;;;;11.91;100.00;101207.88;5095156;28;20474;-62
2023/09/16 03:49:02;;;;;;;22.73;14.15;;;;;;;11.89;100.00;101206.09;5094750;28;20105;-64
2023/09/16 03:51:28;;;;;;;23.25;14.45;;;;;;;11.86;100.00;101194.56;5094837;28;20092;-64
2023/09/16 03:53:54;;;;;;;23.73;15.02;;;;;;;11.84;100.00;101196.34;5094853;28;20459;-62
2023/09/16 03:56:19;;;;;;;24.13;15.73;;;;;;;11.82;100.00;101191.91;5094620;28;20056;-64
2023/09/16 03:58:45;;;;;;;23.05;14.10;;;;;;;11.77;100.00;101193.69;5094410;28;20032;-62
2023/09/16 04:01:10;;;;;;;22.67;14.18;;;;;;;11.74;100.00;101194.53;5094727;28;20026;-63
2023/09/16 04:03:36;;;;;;;23.98;15.90;;;;;;;11.72;100.00;101184.81;5094330;28;20055;-64
2023/09/16 04:06:03;;;;;;;24.27;16.15;;;;;;;11.66;100.00;101196.25;5094652;28;20081;-64
2023/09/16 04:08:29;;;;;;;24.63;16.30;;;;;;;11.62;100.00;101195.38;5090703;28;20032;-62
2023/09/16 04:10:54;;;;;;;27.42;17.70;;;;;;;11.64;100.00;101198.88;5094351;28;20024;-61
2023/09/16 04:13:22;;;;;;;25.02;17.13;;;;;;;11.73;100.00;101200.69;5094253;28;20032;-64
2023/09/16 04:15:47;;;;;;;24.10;15.35;;;;;;;11.69;100.00;101201.56;5094464;28;20047;-64
2023/09/16 04:18:13;;;;;;;23.75;15.18;;;;;;;11.70;100.00;101198.03;5094152;28;20475;-62
2023/09/16 04:20:38;;;;;;;23.45;14.40;;;;;;;11.63;100.00;101201.53;5094453;28;20055;-63
2023/09/16 04:23:03;;;;;;;23.55;14.27;;;;;;;11.65;100.00;101202.44;5094236;28;20069;-63
2023/09/16 04:25:29;;;;;;;24.08;14.27;;;;;;;11.65;100.00;101198.03;5094367;28;20024;-62
2023/09/16 04:27:55;;;;;;;24.60;15.50;;;;;;;11.57;100.00;101196.22;5094134;28;20028;-62
2023/09/16 04:30:20;;;;;;;24.90;14.43;;;;;;;11.58;100.00;101198.00;5093999;28;20020;-65
2023/09/16 04:32:46;;;;;;;23.00;14.55;;;;;;;11.56;100.00;101191.78;5093861;28;20056;-65
2023/09/16 04:35:11;;;;;;;22.98;14.35;;;;;;;11.53;100.00;101197.94;5094103;28;20483;-61
2023/09/16 04:37:36;;;;;;;22.85;13.90;;;;;;;11.47;100.00;101193.47;5093854;28;20030;-61
2023/09/16 04:40:20;;;;;;;23.95;15.35;;;;;;;11.48;100.00;101197.91;5093865;28;20028;-62
2023/09/16 04:42:45;;;;;;;23.08;14.23;;;;;;;11.44;100.00;101187.31;5092083;28;20028;-64
2023/09/16 04:45:11;;;;;;;23.60;14.48;;;;;;;11.40;100.00;101191.69;5093867;28;20086;-62
2023/09/16 04:47:36;;;;;;;23.70;14.75;;;;;;;11.40;100.00;101183.75;5093602;28;20059;-64
2023/09/16 04:50:02;;;;;;;23.73;14.98;;;;;;;11.41;100.00;101185.50;5093088;28;20027;-64
2023/09/16 04:52:27;;;;;;;23.88;14.38;;;;;;;11.40;100.00;101186.41;5093778;28;20092;-61
2023/09/16 04:54:54;;;;;;;22.33;14.23;;;;;;;11.36;100.00;101187.25;5093521;28;20051;-64
2023/09/16 04:57:20;;;;;;;22.38;13.98;;;;;;;11.38;100.00;101193.44;5093471;28;20035;-64
2023/09/16 04:59:46;;;;;;;23.73;14.73;;;;;;;11.36;100.00;101192.56;5093793;28;20032;-64
2023/09/16 05:02:11;;;;;;;22.95;14.02;;;;;;;11.37;100.00;101181.06;5093234;28;20047;-64
2023/09/16 05:04:37;;;;;;;23.30;14.73;;;;;;;11.37;100.00;101193.44;5093534;28;20028;-63
2023/09/16 05:07:04;;;;;;;23.85;16.20;;;;;;;11.38;100.00;101196.09;5093559;28;20036;-64
2023/09/16 05:09:30;;;;;;;24.02;15.77;;;;;;;11.28;100.00;101197.78;5089400;28;20102;-62
2023/09/16 05:11:55;;;;;;;24.65;17.10;;;;;;;11.31;100.00;101194.28;5093510;28;20028;-63
2023/09/16 05:14:21;;;;;;;26.17;18.45;;;;;;;11.34;100.00;101204.88;5093143;28;20027;-67
2023/09/16 05:16:46;;;;;;;23.73;15.73;;;;;;;11.34;100.00;101199.56;5093141;28;20062;-69
2023/09/16 05:19:11;;;;;;;24.33;16.83;;;;;;;11.36;100.00;101197.84;5092250;28;20028;-67
2023/09/16 05:21:38;;;;;;;25.10;17.27;;;;;;;11.40;100.00;101189.06;5093076;28;20368;-70
2023/09/16 05:24:04;;;;;;;25.67;17.27;;;;;;;11.48;100.00;101194.38;5092994;28;20435;-66
2023/09/16 05:26:30;;;;;;;24.13;15.98;;;;;;;11.49;100.00;101193.53;5093496;28;20123;-69
2023/09/16 05:28:56;;;;;;;24.17;16.15;;;;;;;11.49;100.00;101198.81;5093185;28;20122;-65
2023/09/16 05:31:23;;;;;;;24.42;16.80;;;;;;;11.49;100.00;101199.69;5092960;28;20112;-67
2023/09/16 05:33:49;;;;;;;24.52;16.35;;;;;;;11.48;100.00;101199.69;5093068;28;20111;-69
2023/09/16 05:36:14;;;;;;;26.40;17.60;;;;;;;11.44;100.00;101188.16;5093122;28;20115;-69
2023/09/16 05:38:40;;;;;;;24.85;16.73;;;;;;;11.45;100.00;101197.91;5093124;28;20363;-68
2023/09/16 05:41:05;;;;;;;21.77;13.23;;;;;;;11.35;100.00;101201.34;5092991;28;20061;-68
2023/09/16 05:43:30;;;;;;;23.05;13.90;;;;;;;11.33;100.00;101195.19;5092744;28;20420;-69
2023/09/16 05:45:56;;;;;;;23.52;15.40;;;;;;;11.39;100.00;101196.97;5092771;28;20032;-65
2023/09/16 05:48:21;;;;;;;24.70;14.95;;;;;;;11.45;100.00;101197.03;5092928;28;20518;-69
2023/09/16 05:50:57;;;;;;;23.45;14.82;;;;;;;11.50;100.00;101196.19;5092994;28;20024;-65
2023/09/16 05:53:23;;;;;;;23.33;14.60;;;;;;;11.54;100.00;101199.72;5092960;28;20056;-67
2023/09/16 05:55:48;;;;;;;23.70;15.00;;;;;;;11.65;100.00;101205.97;5092866;28;20108;-69
2023/09/16 05:58:13;;;;;;;24.23;14.95;;;;;;;11.64;100.00;101203.31;5092619;28;20039;-67
2023/09/16 06:00:40;;;;;;;23.13;14.48;;;;;;;11.73;100.00;101199.81;5093117;28;20487;-68
2023/09/16 06:03:05;;;;;;;24.83;15.02;;;;;;;11.79;100.00;101202.50;5096751;28;20044;-69
2023/09/16 06:05:30;;;;;;;23.50;15.00;;;;;;;11.82;100.00;101203.41;5096811;28;20092;-64
2023/09/16 06:07:56;;;;;;;23.45;15.40;;;;;;;11.87;100.00;101211.38;5096721;28;20032;-64
2023/09/16 06:10:21;;;;;;;22.67;14.52;;;;;;;11.92;100.00;101200.81;5096899;28;20024;-63
2023/09/16 06:12:47;;;;;;;24.80;16.05;;;;;;;11.98;100.00;101199.06;5096657;28;20051;-64
2023/09/16 06:15:12;;;;;;;27.98;20.70;;;;;;;12.10;100.00;101207.97;5097058;28;20024;-65
2023/09/16 06:17:38;;;;;;;26.40;18.73;;;;;;;12.17;100.00;101210.66;5096931;28;20043;-65
2023/09/16 06:20:04;;;;;;;26.42;19.52;;;;;;;12.24;100.00;101213.31;5096560;28;20020;-64
2023/09/16 06:22:29;;;;;;;27.13;19.83;;;;;;;12.35;100.00;101216.91;5091405;28;20040;-65
2023/09/16 06:24:54;;;;;;;26.08;18.52;;;;;;;12.47;100.00;101224.88;5096284;28;20037;-64
2023/09/16 06:27:20;;;;;;;27.35;21.30;;;;;;;12.52;100.00;101223.13;5096358;28;20049;-62
2023/09/16 06:29:46;;;;;;;28.67;22.33;;;;;;;12.62;100.00;101224.00;5096734;28;20028;-64
2023/09/16 06:32:12;;;;;;;28.15;23.10;;;;;;;12.67;100.00;101224.94;5096256;28;20380;-64
2023/09/16 06:34:37;;;;;;;28.52;22.52;;;;;;;12.81;100.00;101221.41;5096265;28;20047;-65
2023/09/16 06:37:05;;;;;;;29.67;23.08;;;;;;;12.92;100.00;101227.59;5096605;28;20453;-66
2023/09/16 06:39:31;;;;;;;28.25;22.83;;;;;;;13.01;100.00;101226.72;5092470;28;20119;-64
2023/09/16 06:42:00;;;;;;;29.40;24.30;;;;;;;13.08;100.00;101228.50;5096277;28;20028;-65
2023/09/16 06:44:25;;;;;;;29.83;25.75;;;;;;;13.19;100.00;101229.41;5096388;28;20032;-63
2023/09/16 06:46:50;;;;;;;30.45;25.60;;;;;;;13.23;100.00;101228.47;5096026;28;20024;-64
2023/09/16 06:49:19;;;;;;;29.58;25.13;;;;;;;13.36;100.00;101231.19;5094652;28;20024;-65
2023/09/16 06:51:44;;;;;;;30.38;25.40;;;;;;;13.48;100.00;101230.28;5096153;28;20078;-64
2023/09/16 06:54:10;;;;;;;30.08;24.60;;;;;;;13.59;100.00;101225.84;5095759;28;20028;-63
2023/09/16 06:56:35;;;;;;;30.90;25.35;;;;;;;13.69;100.00;101238.19;5096023;28;20028;-63
2023/09/16 06:59:01;;;;;;;30.52;24.73;;;;;;;13.80;100.00;101234.63;5095967;28;20032;-61
2023/09/16 07:01:27;;;;;;;31.27;26.27;;;;;;;13.87;100.00;101226.63;5095706;28;20063;-65
2023/09/16 07:03:52;;;;;;;30.00;24.50;;;;;;;13.97;100.00;101231.94;5095378;28;20060;-65
2023/09/16 07:06:18;;;;;;;30.38;24.23;;;;;;;14.10;100.00;101228.34;5095744;28;20479;-70
2023/09/16 07:08:43;;;;;;;29.75;24.23;;;;;;;14.20;100.00;101224.75;5095582;28;20053;-70
2023/09/16 07:11:11;;;;;;;30.02;24.38;;;;;;;14.27;100.00;101226.47;5095717;28;20042;-69
2023/09/16 07:13:36;;;;;;;29.92;24.80;;;;;;;14.41;100.00;101222.84;5088945;28;20055;-65
2023/09/16 07:16:02;;;;;;;30.35;24.80;;;;;;;14.59;100.00;101236.06;5095672;28;20051;-70
2023/09/16 07:18:27;;;;;;;28.98;23.45;;;;;;;14.70;100.00;101227.16;5095465;28;20032;-69
2023/09/16 07:20:52;;;;;;;29.23;24.80;;;;;;;14.78;100.00;101231.53;5095258;28;20028;-70
2023/09/16 07:23:18;;;;;;;29.77;24.10;;;;;;;14.93;100.00;101222.56;5095244;28;20059;-70
2023/09/16 07:25:58;;;;;;;30.52;23.98;;;;;;;15.03;100.00;101222.47;5094062;28;20032;-69
2023/09/16 07:28:25;;;;;;;29.48;24.23;;;;;;;15.23;100.00;101223.22;5092658;28;20037;-70
2023/09/16 07:30:50;;;;;;;28.30;22.88;;;;;;;15.37;100.00;101222.19;5095127;28;20032;-70
2023/09/16 07:33:16;;;;;;;30.50;23.55;;;;;;;15.51;100.00;101220.28;5095087;28;20028;-69
2023/09/16 07:35:41;;;;;;;29.08;23.45;;;;;;;15.63;100.00;101222.81;5087553;28;20037;-68
2023/09/16 07:38:08;;;;;;;27.50;21.13;;;;;;;15.77;100.00;101229.75;5084538;28;20172;-68
2023/09/16 07:40:35;;;;;;;26.77;21.17;;;;;;;15.91;100.00;101224.31;5083164;28;20099;-64
2023/09/16 07:43:01;;;;;;;28.80;22.25;;;;;;;16.09;100.00;101225.88;5095011;28;20371;-61
2023/09/16 07:45:26;;;;;;;27.80;20.75;;;;;;;16.16;100.00;101227.56;5094704;28;20040;-61
2023/09/16 07:47:53;;;;;;;28.42;20.83;;;;;;;16.17;100.00;101222.19;5093654;28;20028;-62
2023/09/16 07:50:18;;;;;;;26.83;20.80;;;;;;;16.29;100.00;101220.28;5094969;28;20032;-65
2023/09/16 07:52:44;;;;;;;26.90;20.13;;;;;;;16.43;100.00;101222.78;5094758;28;20050;-62
2023/09/16 07:55:10;;;;;;;26.88;19.48;;;;;;;16.60;100.00;101226.09;5094902;28;20427;-61
2023/09/16 07:57:36;;;;;;;27.33;19.50;;;;;;;16.68;100.00;101226.81;5094752;28;20030;-64
2023/09/16 08:00:07;;;;;;;28.45;19.85;;;;;;;16.72;100.00;101228.56;5094559;28;20032;-70
2023/09/16 08:02:32;;;;;;;27.05;19.45;;;;;;;16.80;100.00;101227.56;5093463;28;20384;-70
2023/09/16 08:04:58;;;;;;;25.20;18.55;;;;;;;16.92;100.00;101230.09;5094761;28;20039;-69
2023/09/16 08:07:23;;;;;;;27.45;19.05;;;;;;;17.04;100.00;101226.34;5094348;28;20024;-69
2023/09/16 08:09:48;;;;;;;26.90;19.38;;;;;;;17.25;100.00;101225.94;5091370;28;20024;-69
2023/09/16 08:12:14;;;;;;;25.23;18.45;;;;;;;17.43;100.00;101232.78;5088482;28;20050;-79
2023/09/16 08:14:39;;;;;;;25.35;18.45;;;;;;;17.54;100.00;101229.88;5093977;28;20027;-76
2023/09/16 08:17:04;;;;;;;25.13;17.98;;;;;;;17.64;100.00;101227.06;5094352;28;20059;-75
2023/09/16 08:19:31;;;;;;;25.38;17.92;;;;;;;17.71;100.00;101229.56;5085242;28;20074;-74
2023/09/16 08:21:56;;;;;;;25.02;17.27;;;;;;;17.78;100.00;101225.00;5083967;28;20055;-78
2023/09/16 08:24:22;;;;;;;25.50;17.38;;;;;;;17.89;100.00;101228.31;5083557;28;20497;-79
2023/09/16 08:26:48;;;;;;;25.90;17.25;;;;;;;18.02;100.00;101229.00;5080565;28;20132;-73
2023/09/16 08:29:13;;;;;;;24.58;16.83;;;;;;;18.14;100.00;101226.97;5081471;28;20087;-73
2023/09/16 08:31:39;;;;;;;26.30;17.67;;;;;;;18.26;100.00;101232.97;5087198;28;20395;-73
2023/09/16 08:34:04;;;;;;;25.10;16.73;;;;;;;18.45;100.00;101233.44;5082241;28;20025;-70
2023/09/16 08:36:29;;;;;;;24.67;16.67;;;;;;;18.59;100.00;101240.28;5083552;28;20021;-72
2023/09/16 08:38:55;;;;;;;25.27;15.82;;;;;;;18.68;100.00;101242.72;5089455;28;20154;-75
2023/09/16 08:41:37;;;;;;;24.00;15.98;;;;;;;18.83;100.00;101249.53;5091312;28;20039;-76
2023/09/16 08:44:05;;;;;;;23.70;15.13;;;;;;;19.02;100.00;101250.00;5093556;28;20078;-77
2023/09/16 08:46:33;;;;;;;23.50;14.57;;;;;;;19.38;100.00;101252.66;5092287;28;20016;-74
2023/09/16 08:49:03;;;;;;;23.15;13.50;;;;;;;20.25;100.00;101240.47;5093528;28;20036;-76
2023/09/16 08:51:31;;;;;;;22.38;13.07;;;;;;;21.04;100.00;101243.41;5092797;28;20024;-66
2023/09/16 08:53:59;;;;;;;22.70;12.50;;;;;;;21.56;100.00;101244.34;5080369;28;20032;-62
2023/09/16 08:56:25;;;;;;;21.55;12.07;;;;;;;22.02;100.00;101244.50;5092945;28;20051;-64
2023/09/16 08:58:50;;;;;;;21.83;11.32;;;;;;;22.54;100.00;101247.06;5093511;28;20056;-64
2023/09/16 09:01:17;;;;;;;21.35;11.35;;;;;;;22.70;100.00;101250.03;5092984;28;20031;-62
2023/09/16 09:03:43;;;;;;;20.80;11.13;;;;;;;22.99;100.00;101250.63;5093129;28;20384;-61
2023/09/16 09:06:10;;;;;;;20.92;11.13;;;;;;;23.31;100.00;101253.84;5093059;28;20031;-61
2023/09/16 09:08:35;;;;;;;23.08;11.80;;;;;;;23.94;100.00;101240.31;5093380;28;20098;-61
2023/09/16 09:11:01;;;;;;;21.75;11.98;;;;;;;24.51;100.00;101239.50;5093417;28;20391;-67
2023/09/16 09:13:28;;;;;;;21.77;11.63;;;;;;;25.20;100.00;101240.63;5088410;28;20467;-66
2023/09/16 09:15:59;;;;;;;22.25;11.38;;;;;;;25.91;100.00;101240.53;5093127;28;20032;-65
2023/09/16 09:18:25;;;;;;;21.00;11.32;;;;;;;26.42;100.00;101240.50;5080058;28;20019;-63
2023/09/16 09:20:51;;;;;;;21.35;11.23;;;;;;;26.62;100.00;101257.50;5093047;28;20036;-63
2023/09/16 09:23:16;;;;;;;21.15;11.30;;;;;;;26.01;100.00;101254.50;5092859;28;20082;-62
2023/09/16 09:25:42;;;;;;;22.15;12.00;;;;;;;25.96;100.00;101261.94;5091832;28;20054;-63
2023/09/16 09:28:08;;;;;;;21.77;12.63;;;;;;;26.49;100.00;101260.00;5092781;28;20020;-62
2023/09/16 09:30:33;;;;;;;21.45;10.68;;;;;;;26.95;100.00;101259.25;5092801;28;20028;-62
2023/09/16 09:32:59;;;;;;;21.35;10.10;;;;;;;27.68;100.00;101268.53;5093003;28;20523;-75
2023/09/16 09:35:26;;;;;;;20.65;10.35;;;;;;;28.11;100.00;101258.63;5092584;28;20039;-77
2023/09/16 09:37:52;;;;;;;20.33;10.32;;;;;;;28.61;100.00;101260.94;5090903;28;20031;-74
2023/09/16 09:40:19;;;;;;;21.20;10.82;;;;;;;28.89;96.97;101267.28;5081363;28;20029;-73
2023/09/16 09:42:46;;;;;;;20.67;11.40;;;;;;;28.93;86.11;101275.13;5087633;28;20145;-71
2023/09/16 09:45:13;;;;;;;20.45;11.02;;;;;;;28.91;87.87;101270.75;5092886;28;20194;-70
2023/09/16 09:47:40;;;;;;;21.30;12.00;;;;;;;28.60;91.49;101268.22;5092975;28;20028;-72
2023/09/16 09:50:10;;;;;;;22.73;12.15;;;;;;;28.71;98.84;101272.09;5092714;28;20488;-75
2023/09/16 09:52:36;;;;;;;20.90;11.90;;;;;;;29.08;90.65;101273.25;5092968;28;20024;-71
2023/09/16 09:55:01;;;;;;;21.33;11.60;;;;;;;29.42;88.71;101271.00;5092951;28;20111;-73
2023/09/16 09:57:27;;;;;;;21.05;11.23;;;;;;;29.88;83.31;101273.25;5092611;28;20032;-73
2023/09/16 09:59:54;;;;;;;22.63;11.68;;;;;;;30.43;75.85;101270.28;5092387;28;20039;-76
2023/09/16 10:02:24;;;;;;;20.58;11.07;;;;;;;31.08;73.29;101268.25;5092176;28;20020;-74
2023/09/16 10:04:58;;;;;;;22.17;12.55;;;;;;;31.78;66.43;101267.41;5092781;28;20417;-73
2023/09/16 10:07:25;;;;;;;21.75;12.73;;;;;;;32.18;60.33;101257.91;5092591;28;20024;-76
2023/09/16 10:09:51;;;;;;;23.27;12.93;;;;;;;32.46;60.18;101261.13;5092801;28;20024;-69
2023/09/16 10:12:18;;;;;;;21.63;11.05;;;;;;;32.90;56.66;101264.81;5092528;28;20038;-74
2023/09/16 10:14:45;;;;;;;21.55;11.50;;;;;;;33.34;54.52;101256.56;5092486;28;20024;-71
2023/09/16 10:17:10;;;;;;;21.85;11.43;;;;;;;33.48;54.32;101259.00;5092675;28;20029;-76
2023/09/16 10:19:36;;;;;;;21.55;11.18;;;;;;;33.70;53.81;101255.25;5092416;28;20028;-71
2023/09/16 10:22:01;;;;;;;20.73;10.50;;;;;;;34.29;52.77;101257.47;5092479;28;20447;-73
2023/09/16 10:24:27;;;;;;;20.60;11.13;;;;;;;34.47;51.06;101252.19;5092462;28;20032;-78
2023/09/16 10:26:54;;;;;;;20.10;10.75;;;;;;;34.58;49.33;101255.69;5092434;28;20466;-78
2023/09/16 10:29:20;;;;;;;19.77;9.57;;;;;;;34.47;49.14;101260.41;5092312;28;20029;-77
2023/09/16 10:31:47;;;;;;;19.92;9.48;;;;;;;34.59;48.14;101248.34;5092472;28;20024;-78
2023/09/16 10:34:13;;;;;;;19.45;9.85;;;;;;;34.42;47.49;101249.00;5092375;28;20040;-77
2023/09/16 10:36:39;;;;;;;25.08;10.30;;;;;;;34.18;47.73;101244.69;5092282;28;20027;-77
2023/09/16 10:39:05;;;;;;;20.00;10.32;;;;;;;34.00;48.49;101255.44;5092512;28;20360;-78
2023/09/16 10:41:32;;;;;;;20.48;10.15;;;;;;;33.80;48.53;101249.88;5088329;28;20024;-78
2023/09/16 10:43:58;;;;;;;20.25;9.75;;;;;;;33.70;50.31;101246.16;5092024;28;20490;-77
2023/09/16 10:46:23;;;;;;;20.08;9.93;;;;;;;33.40;49.24;101242.34;5092374;28;20032;-77
2023/09/16 10:48:51;;;;;;;20.33;9.57;;;;;;;33.57;49.52;101245.47;5095981;28;20122;-77
2023/09/16 10:51:22;;;;;;;20.05;10.23;;;;;;;33.66;49.46;101239.22;5095916;28;20078;-78
2023/09/16 10:53:59;;;;;;;20.30;10.07;;;;;;;33.04;51.88;101232.66;5096066;28;20059;-78
2023/09/16 10:56:28;;;;;;;21.50;10.85;;;;;;;33.54;50.32;101230.19;5094863;28;20032;-77
2023/09/16 10:59:07;;;;;;;20.60;11.10;;;;;;;34.00;49.86;101226.13;5095702;28;20110;-77